Terminal Aerodrome Forecast
Issued by NWS

Home | Current Version | Previous Version | Text Only | Print | Product List | Glossary On
Versions: 1 2 3 4 5 6 7 8 9 10 11 12 13
000
FTAK31 PAFA 290522
TAFASC
TAF
PASC 290522Z 2906/3006 08019KT P6SM FEW100
     FM291400 08013KT 2SM BR OVC009
     FM292200 08015KT P6SM OVC014=

USA.gov is the U.S. government's official web portal to all federal, state and local government web resources and services.